Time;durP1;ratioP1;P1;durP2;ratioP2;P2;SDS_P1;SDS_P2;PMS_P1;PMS_P2;Temp;Humidity;BMP_temperature;BMP_pressure;BME280_temperature;BME280_humidity;BME280_pressure;Samples;Min_cycle;Max_cycle;Signal;HPM_P1;HPM_P2
2023/12/08 00:01:50;;;;;;;1.20;1.10;;;1.10;99.90;;;;;;5115426;28;20039;-71
2023/12/08 00:04:16;;;;;;;1.35;1.25;;;1.10;99.90;;;;;;5114981;28;20150;-72
2023/12/08 00:06:41;;;;;;;4.40;4.05;;;1.10;99.90;;;;;;5114881;28;20043;-71
2023/12/08 00:09:07;;;;;;;1.10;1.00;;;2.00;99.90;;;;;;5114889;28;20468;-69
2023/12/08 00:11:33;;;;;;;1.80;1.70;;;1.10;99.90;;;;;;5114802;28;20460;-69
2023/12/08 00:13:58;;;;;;;1.45;1.35;;;1.10;99.90;;;;;;5114769;28;20039;-73
2023/12/08 00:16:24;;;;;;;1.10;1.00;;;1.10;99.90;;;;;;5114845;28;20036;-71
2023/12/08 00:18:50;;;;;;;1.30;1.20;;;1.10;99.90;;;;;;5114535;28;20050;-72
2023/12/08 00:21:16;;;;;;;1.17;1.08;;;1.10;99.90;;;;;;5114803;28;20463;-74
2023/12/08 00:23:41;;;;;;;1.10;1.00;;;1.10;99.90;;;;;;5114732;28;20043;-75
2023/12/08 00:26:07;;;;;;;1.85;1.75;;;1.10;99.90;;;;;;5114700;28;20088;-71
2023/12/08 00:28:33;;;;;;;1.30;1.20;;;1.10;99.90;;;;;;5114591;28;20401;-73
2023/12/08 00:30:58;;;;;;;1.20;1.10;;;1.10;99.90;;;;;;5114666;28;20045;-72
2023/12/08 00:33:24;;;;;;;1.30;1.20;;;1.10;99.90;;;;;;5114661;28;20067;-73
2023/12/08 00:35:50;;;;;;;1.20;1.10;;;1.10;99.90;;;;;;5114345;28;20083;-71
2023/12/08 00:38:15;;;;;;;1.20;1.10;;;1.10;99.90;;;;;;5114257;28;20054;-72
2023/12/08 00:40:41;;;;;;;1.30;1.20;;;1.20;99.90;;;;;;5114522;28;20181;-73
2023/12/08 00:43:07;;;;;;;1.30;1.20;;;1.10;99.90;;;;;;5114762;28;20050;-71
2023/12/08 00:45:32;;;;;;;3.45;2.28;;;1.10;99.90;;;;;;5114164;28;20092;-71
2023/12/08 00:47:58;;;;;;;1.58;1.48;;;1.10;99.90;;;;;;5114266;28;20081;-71
2023/12/08 00:50:24;;;;;;;1.40;1.30;;;1.10;99.90;;;;;;5114279;28;20081;-73
2023/12/08 00:52:49;;;;;;;1.20;1.10;;;1.10;99.90;;;;;;5114242;28;20051;-69
2023/12/08 00:55:15;;;;;;;3.13;2.92;;;1.10;99.90;;;;;;5114476;28;20039;-71
2023/12/08 00:57:40;;;;;;;1.20;1.10;;;1.10;99.90;;;;;;5114184;28;20130;-70
2023/12/08 01:00:07;;;;;;;1.30;1.20;;;1.00;99.90;;;;;;5114009;28;20032;-73
2023/12/08 01:02:32;;;;;;;1.30;1.20;;;1.10;99.90;;;;;;5114071;28;20040;-71
2023/12/08 01:04:58;;;;;;;1.30;1.20;;;1.10;99.90;;;;;;5114193;28;20097;-70
2023/12/08 01:07:23;;;;;;;1.38;1.20;;;1.00;99.90;;;;;;5113909;28;20488;-69
2023/12/08 01:09:49;;;;;;;1.75;1.65;;;1.00;99.90;;;;;;5114138;28;20047;-74
2023/12/08 01:12:15;;;;;;;1.33;1.23;;;1.00;99.90;;;;;;5114001;28;20035;-70
2023/12/08 01:14:40;;;;;;;2.97;2.55;;;1.60;99.90;;;;;;5114092;28;20043;-72
2023/12/08 01:17:06;;;;;;;5.57;3.83;;;1.00;99.90;;;;;;5114119;28;20047;-72
2023/12/08 01:19:32;;;;;;;1.20;1.10;;;1.00;99.90;;;;;;5113789;28;20490;-70
2023/12/08 01:21:57;;;;;;;1.20;1.00;;;1.00;99.90;;;;;;5114264;28;20136;-72
2023/12/08 01:24:24;;;;;;;1.20;1.10;;;1.00;99.90;;;;;;5113548;28;20490;-70
2023/12/08 01:26:49;;;;;;;1.20;1.10;;;1.00;99.90;;;;;;5113839;28;20070;-71
2023/12/08 01:29:15;;;;;;;9.25;3.28;;;1.00;99.90;;;;;;5114059;28;20310;-73
2023/12/08 01:31:40;;;;;;;1.45;1.35;;;1.00;99.90;;;;;;5117722;28;20043;-72
2023/12/08 01:34:06;;;;;;;1.45;1.35;;;1.00;99.90;;;;;;5117755;28;20548;-72
2023/12/08 01:36:32;;;;;;;2.33;2.13;;;1.10;99.90;;;;;;5117807;28;20127;-69
2023/12/08 01:38:58;;;;;;;1.42;1.33;;;1.00;99.90;;;;;;5117608;28;20126;-73
2023/12/08 01:41:23;;;;;;;1.35;1.25;;;1.00;99.90;;;;;;5117590;28;20119;-72
2023/12/08 01:43:49;;;;;;;1.77;1.60;;;1.00;99.90;;;;;;5117491;28;20032;-70
2023/12/08 01:46:17;;;;;;;1.20;1.10;;;1.00;99.90;;;;;;5117569;28;20031;-72
2023/12/08 01:48:43;;;;;;;1.10;1.00;;;1.20;99.90;;;;;;5117454;28;20046;-70
2023/12/08 01:51:11;;;;;;;1.38;1.27;;;1.00;99.90;;;;;;5117175;28;20027;-70
2023/12/08 01:53:38;;;;;;;2.47;2.28;;;1.10;99.90;;;;;;5117316;28;20044;-74
2023/12/08 01:56:05;;;;;;;1.20;1.10;;;1.00;99.90;;;;;;5117372;28;20504;-73
2023/12/08 01:58:31;;;;;;;1.10;1.00;;;1.00;99.90;;;;;;5117213;28;20050;-70
2023/12/08 02:00:58;;;;;;;1.27;1.17;;;1.10;99.90;;;;;;5117175;28;20123;-72
2023/12/08 02:03:24;;;;;;;;;;;1.10;99.90;;;;;;5117894;28;20444;-71
2023/12/08 02:05:50;;;;;;;1.10;1.00;;;1.10;99.90;;;;;;5117254;28;19919;-73
2023/12/08 02:08:17;;;;;;;1.10;1.00;;;1.10;99.90;;;;;;5117027;28;20096;-70
2023/12/08 02:10:43;;;;;;;1.20;1.10;;;1.10;99.90;;;;;;5115816;28;20043;-72
2023/12/08 02:13:09;;;;;;;1.42;1.33;;;1.10;99.90;;;;;;5117079;28;20066;-69
2023/12/08 02:15:35;;;;;;;1.73;1.63;;;1.10;99.90;;;;;;5116912;28;20052;-71
2023/12/08 02:18:01;;;;;;;2.88;1.17;;;1.10;99.90;;;;;;5117156;28;20047;-72
2023/12/08 02:20:27;;;;;;;9.00;2.38;;;1.10;99.90;;;;;;5116672;28;20058;-73
2023/12/08 02:22:52;;;;;;;1.20;1.10;;;1.10;99.90;;;;;;5117055;28;20035;-71
2023/12/08 02:25:18;;;;;;;1.20;1.10;;;1.10;99.90;;;;;;5116754;28;20126;-71
2023/12/08 02:27:44;;;;;;;2.40;2.28;;;1.00;99.90;;;;;;5116666;28;20043;-73
2023/12/08 02:30:10;;;;;;;1.10;1.00;;;1.10;99.90;;;;;;5116711;28;20130;-70
2023/12/08 02:32:51;;;;;;;1.35;1.25;;;1.10;99.90;;;;;;5116799;28;20050;-72
2023/12/08 02:35:20;;;;;;;1.50;1.40;;;1.10;99.90;;;;;;5116480;28;20468;-72
2023/12/08 02:37:48;;;;;;;1.30;1.20;;;1.10;99.90;;;;;;5116515;28;20055;-70
2023/12/08 02:40:14;;;;;;;1.30;1.20;;;1.10;99.90;;;;;;5116342;28;20028;-72
2023/12/08 02:42:40;;;;;;;2.28;2.08;;;1.10;99.90;;;;;;5115710;28;20450;-70
2023/12/08 02:45:06;;;;;;;1.20;1.10;;;1.10;99.90;;;;;;5116715;28;20118;-70
2023/12/08 02:47:32;;;;;;;1.20;1.10;;;1.10;99.90;;;;;;5115998;28;20468;-71
2023/12/08 02:49:58;;;;;;;3.65;2.67;;;1.10;99.90;;;;;;5116255;28;20047;-71
2023/12/08 02:52:23;;;;;;;10.70;7.18;;;1.10;99.90;;;;;;5116269;28;20040;-73
2023/12/08 02:54:49;;;;;;;2.10;2.00;;;1.10;99.90;;;;;;5116217;28;20051;-74
2023/12/08 02:57:14;;;;;;;1.85;1.75;;;1.10;99.90;;;;;;5116177;28;20345;-70
2023/12/08 02:59:40;;;;;;;6.43;2.97;;;1.10;99.90;;;;;;5116005;28;20046;-71
2023/12/08 03:02:06;;;;;;;3.10;1.30;;;1.10;99.90;;;;;;5115923;28;20184;-71
2023/12/08 03:04:31;;;;;;;1.30;1.20;;;1.10;99.90;;;;;;5115801;28;20058;-72
2023/12/08 03:06:57;;;;;;;1.30;1.20;;;1.10;99.90;;;;;;5115789;28;20459;-72
2023/12/08 03:09:23;;;;;;;1.50;1.40;;;1.10;99.90;;;;;;5115786;28;20047;-73
2023/12/08 03:11:48;;;;;;;1.10;1.00;;;1.10;99.90;;;;;;5115684;28;20043;-70
2023/12/08 03:14:14;;;;;;;1.30;1.20;;;1.10;99.90;;;;;;5114462;28;20046;-70
2023/12/08 03:16:39;;;;;;;2.05;1.95;;;1.10;99.90;;;;;;5115765;28;20047;-72
2023/12/08 03:19:05;;;;;;;1.15;1.05;;;1.10;99.90;;;;;;5115796;28;20533;-73
2023/12/08 03:21:31;;;;;;;1.35;1.25;;;1.10;99.90;;;;;;5116170;27;20047;-73
2023/12/08 03:23:56;;;;;;;1.20;1.10;;;1.10;99.90;;;;;;5116038;28;20036;-73
2023/12/08 03:26:22;;;;;;;1.20;1.10;;;1.10;99.90;;;;;;5116034;28;20043;-74
2023/12/08 03:28:48;;;;;;;2.70;2.38;;;1.10;99.90;;;;;;5115549;28;20032;-73
2023/12/08 03:31:21;;;;;;;1.40;1.30;;;1.10;99.90;;;;;;5115397;28;20039;-72
2023/12/08 03:33:47;;;;;;;1.10;1.00;;;1.10;99.90;;;;;;5114071;28;20050;-71
2023/12/08 03:36:12;;;;;;;1.30;1.20;;;1.20;99.90;;;;;;5115375;28;20035;-71
2023/12/08 03:38:38;;;;;;;2.88;1.80;;;1.10;99.90;;;;;;5115392;28;20055;-69
2023/12/08 03:41:04;;;;;;;1.20;1.10;;;1.10;99.90;;;;;;5115253;28;20036;-72
2023/12/08 03:43:29;;;;;;;1.40;1.30;;;1.10;99.90;;;;;;5115561;28;20395;-71
2023/12/08 03:45:55;;;;;;;1.45;1.35;;;1.10;99.90;;;;;;5115250;28;20044;-72
2023/12/08 03:48:20;;;;;;;1.30;1.20;;;1.00;99.90;;;;;;5115025;28;20050;-71
2023/12/08 03:50:46;;;;;;;1.30;1.20;;;1.00;99.90;;;;;;5115606;28;20038;-73
2023/12/08 03:53:11;;;;;;;3.40;3.10;;;0.90;99.90;;;;;;5114856;28;20081;-71
2023/12/08 03:55:37;;;;;;;1.20;1.10;;;0.90;99.90;;;;;;5115062;28;20078;-70
2023/12/08 03:58:03;;;;;;;1.20;1.10;;;0.90;99.90;;;;;;5115234;28;20042;-73
2023/12/08 04:00:28;;;;;;;1.13;1.02;;;0.90;99.90;;;;;;5114876;28;20043;-71
2023/12/08 04:02:54;;;;;;;1.20;1.10;;;0.80;99.90;;;;;;5114998;28;20043;-75
2023/12/08 04:05:19;;;;;;;1.67;1.58;;;0.80;99.90;;;;;;5114832;28;20046;-72
2023/12/08 04:07:45;;;;;;;1.20;1.10;;;0.80;99.90;;;;;;5114813;28;20047;-71
2023/12/08 04:10:10;;;;;;;1.15;1.05;;;0.80;99.90;;;;;;5114771;28;20514;-72
2023/12/08 04:12:36;;;;;;;2.10;2.00;;;0.90;99.90;;;;;;5114804;28;20036;-73
2023/12/08 04:15:02;;;;;;;1.70;1.60;;;0.90;99.90;;;;;;5114881;28;20474;-70
2023/12/08 04:17:28;;;;;;;1.50;1.40;;;0.90;99.90;;;;;;5114610;28;20042;-69
2023/12/08 04:19:54;;;;;;;3.42;3.20;;;0.90;99.90;;;;;;5114534;28;20039;-70
2023/12/08 04:22:19;;;;;;;1.20;1.10;;;0.90;99.90;;;;;;5114211;28;20052;-70
2023/12/08 04:24:45;;;;;;;1.40;1.30;;;0.90;99.90;;;;;;5114727;28;20043;-73
2023/12/08 04:27:10;;;;;;;1.20;1.10;;;0.90;99.90;;;;;;5114500;28;20035;-71
2023/12/08 04:29:36;;;;;;;1.30;1.20;;;0.80;99.90;;;;;;5114404;28;20043;-72
2023/12/08 04:32:02;;;;;;;1.10;1.00;;;0.80;99.90;;;;;;5114385;28;20043;-70
2023/12/08 04:34:27;;;;;;;1.30;1.20;;;0.80;99.90;;;;;;5114418;28;20114;-73
2023/12/08 04:36:53;;;;;;;1.17;1.08;;;0.80;99.90;;;;;;5114443;28;20039;-69
2023/12/08 04:39:19;;;;;;;1.30;1.20;;;0.80;99.90;;;;;;5114344;28;20076;-71
2023/12/08 04:41:45;;;;;;;1.42;1.33;;;0.80;99.90;;;;;;5113887;28;20043;-69
2023/12/08 04:44:10;;;;;;;1.30;1.20;;;0.80;99.90;;;;;;5114271;28;20050;-71
2023/12/08 04:46:36;;;;;;;1.13;1.02;;;0.80;99.90;;;;;;5114291;28;20126;-73
2023/12/08 04:49:01;;;;;;;1.20;1.10;;;0.80;99.90;;;;;;5114226;28;20035;-73
2023/12/08 04:51:27;;;;;;;1.23;1.13;;;0.80;99.90;;;;;;5114887;28;20071;-70
2023/12/08 04:53:52;;;;;;;1.13;1.02;;;0.80;99.90;;;;;;5114394;28;20100;-70
2023/12/08 04:56:18;;;;;;;1.20;1.10;;;0.80;99.90;;;;;;5114359;28;20082;-73
2023/12/08 04:58:44;;;;;;;1.30;1.20;;;0.80;99.90;;;;;;5114175;28;20043;-69
2023/12/08 05:01:13;;;;;;;1.20;1.10;;;0.80;99.90;;;;;;5114193;28;20042;-70
2023/12/08 05:03:38;;;;;;;1.20;1.10;;;0.70;99.90;;;;;;5114018;28;20039;-69
2023/12/08 05:06:04;;;;;;;1.40;1.30;;;0.80;99.90;;;;;;5115845;28;20036;-73
2023/12/08 05:08:30;;;;;;;1.83;1.73;;;0.70;99.90;;;;;;5118355;28;20035;-69
2023/12/08 05:10:55;;;;;;;2.95;2.75;;;0.70;99.90;;;;;;5118330;28;20124;-72
2023/12/08 05:13:21;;;;;;;3.78;3.42;;;0.70;99.90;;;;;;5118482;28;20044;-73
2023/12/08 05:15:46;;;;;;;1.10;1.00;;;0.70;99.90;;;;;;5117950;28;20039;-69
2023/12/08 05:18:12;;;;;;;1.38;1.27;;;0.70;99.90;;;;;;5118115;28;20043;-70
2023/12/08 05:20:38;;;;;;;1.73;1.63;;;0.70;99.90;;;;;;5116729;28;20066;-72
2023/12/08 05:23:03;;;;;;;1.30;1.20;;;0.70;99.90;;;;;;5117611;28;20479;-71
2023/12/08 05:25:29;;;;;;;1.05;1.00;;;0.80;99.90;;;;;;5118002;28;20032;-72
2023/12/08 05:27:54;;;;;;;1.20;1.10;;;0.80;99.90;;;;;;5117868;28;20035;-71
2023/12/08 05:30:20;;;;;;;1.55;1.45;;;0.70;99.90;;;;;;5117913;28;20047;-69
2023/12/08 05:32:45;;;;;;;1.65;1.55;;;0.70;99.90;;;;;;5117869;28;20036;-70
2023/12/08 05:35:11;;;;;;;1.50;1.40;;;0.70;99.90;;;;;;5117712;28;20047;-72
2023/12/08 05:37:37;;;;;;;1.17;1.08;;;0.90;99.90;;;;;;5117709;28;20078;-70
2023/12/08 05:40:03;;;;;;;2.10;2.00;;;0.70;99.90;;;;;;5118002;28;20071;-73
2023/12/08 05:42:29;;;;;;;1.20;1.10;;;0.70;99.90;;;;;;5117741;28;20044;-69
2023/12/08 05:44:54;;;;;;;2.75;2.55;;;0.70;99.90;;;;;;5117604;28;20378;-71
2023/12/08 05:47:20;;;;;;;3.35;3.05;;;0.70;99.90;;;;;;5117795;28;20147;-72
2023/12/08 05:49:45;;;;;;;1.30;1.20;;;0.70;99.90;;;;;;5117188;28;20038;-69
2023/12/08 05:52:11;;;;;;;1.67;1.58;;;0.80;99.90;;;;;;5117463;28;20035;-73
2023/12/08 05:54:37;;;;;;;1.10;1.00;;;0.70;99.90;;;;;;5117369;28;20031;-70
2023/12/08 05:57:02;;;;;;;1.10;1.00;;;0.70;99.90;;;;;;5117399;28;20050;-72
2023/12/08 05:59:28;;;;;;;1.13;1.02;;;0.70;99.90;;;;;;5117339;28;20075;-70
2023/12/08 06:01:54;;;;;;;2.20;2.10;;;0.70;99.90;;;;;;5117163;28;20035;-73
2023/12/08 06:04:19;;;;;;;1.20;1.10;;;0.70;99.90;;;;;;5117166;28;20036;-73
2023/12/08 06:06:45;;;;;;;1.20;1.10;;;0.70;99.90;;;;;;5117582;28;20032;-72
2023/12/08 06:09:10;;;;;;;1.17;1.08;;;0.70;99.90;;;;;;5117147;28;20379;-71
2023/12/08 06:11:37;;;;;;;1.20;1.10;;;0.70;99.90;;;;;;5117056;28;20039;-70
2023/12/08 06:14:05;;;;;;;1.10;1.00;;;0.70;99.90;;;;;;5117005;28;20036;-71
2023/12/08 06:16:30;;;;;;;1.20;1.10;;;0.70;99.90;;;;;;5116991;28;20039;-70
2023/12/08 06:18:56;;;;;;;1.50;1.40;;;0.70;99.90;;;;;;5116814;28;20573;-73
2023/12/08 06:21:22;;;;;;;2.85;2.65;;;0.70;99.90;;;;;;5117448;28;20070;-71
2023/12/08 06:23:48;;;;;;;1.52;1.42;;;0.60;99.90;;;;;;5117122;28;20459;-75
2023/12/08 06:26:13;;;;;;;1.10;1.00;;;0.60;99.90;;;;;;5116753;28;20043;-69
2023/12/08 06:28:39;;;;;;;1.10;1.00;;;0.60;99.90;;;;;;5117056;28;20054;-68
2023/12/08 06:31:07;;;;;;;2.20;1.85;;;0.70;99.90;;;;;;5116985;28;20039;-70
2023/12/08 06:33:33;;;;;;;1.10;1.00;;;0.70;99.90;;;;;;5116555;28;20059;-71
2023/12/08 06:35:58;;;;;;;1.10;1.00;;;0.70;99.90;;;;;;5116587;28;20463;-71
2023/12/08 06:38:24;;;;;;;4.15;2.75;;;0.70;99.90;;;;;;5116853;28;20036;-71
2023/12/08 06:40:49;;;;;;;1.60;1.50;;;0.70;99.90;;;;;;5116786;28;20096;-69
2023/12/08 06:43:15;;;;;;;1.20;1.10;;;0.70;99.90;;;;;;5116439;28;20542;-70
2023/12/08 06:45:41;;;;;;;1.17;1.08;;;0.70;99.90;;;;;;5116673;28;20039;-70
2023/12/08 06:48:07;;;;;;;1.10;1.00;;;0.70;99.90;;;;;;5116290;28;20057;-72
2023/12/08 06:50:33;;;;;;;1.27;1.17;;;0.60;99.90;;;;;;5116311;28;20071;-69
2023/12/08 06:52:59;;;;;;;1.40;1.30;;;0.70;99.90;;;;;;5116425;28;20502;-69
2023/12/08 06:55:25;;;;;;;1.30;1.20;;;0.70;99.90;;;;;;5116292;28;20082;-72
2023/12/08 06:57:51;;;;;;;1.67;1.47;;;0.70;99.90;;;;;;5116241;28;20048;-68
2023/12/08 07:00:16;;;;;;;8.68;6.32;;;0.60;99.90;;;;;;5115999;28;20439;-71
2023/12/08 07:02:44;;;;;;;1.10;1.00;;;0.60;99.90;;;;;;5116070;28;20047;-72
2023/12/08 07:05:10;;;;;;;1.10;1.00;;;0.60;99.90;;;;;;5116028;27;20051;-73
2023/12/08 07:07:35;;;;;;;1.20;1.10;;;0.60;99.90;;;;;;5115993;28;20040;-76
2023/12/08 07:10:01;;;;;;;3.08;2.85;;;0.60;99.90;;;;;;5116069;28;20134;-71
2023/12/08 07:12:27;;;;;;;1.20;1.10;;;0.60;99.90;;;;;;5115778;28;20463;-71
2023/12/08 07:14:52;;;;;;;1.10;1.00;;;0.60;99.90;;;;;;5115818;28;20036;-72
2023/12/08 07:17:18;;;;;;;1.10;1.00;;;0.60;99.90;;;;;;5115804;28;20043;-76
2023/12/08 07:19:44;;;;;;;1.73;1.63;;;0.60;99.90;;;;;;5115454;28;20095;-71
2023/12/08 07:22:10;;;;;;;1.30;1.20;;;0.60;99.90;;;;;;5116101;28;20379;-70
2023/12/08 07:24:40;;;;;;;1.10;1.00;;;0.60;99.90;;;;;;5115598;28;20039;-69
2023/12/08 07:27:06;;;;;;;2.38;2.17;;;0.60;99.90;;;;;;5115225;28;20050;-71
2023/12/08 07:29:31;;;;;;;1.20;1.10;;;0.60;99.90;;;;;;5115183;28;20035;-71
2023/12/08 07:31:57;;;;;;;3.85;3.15;;;1.70;99.90;;;;;;5115917;28;20155;-70
2023/12/08 07:34:22;;;;;;;1.38;1.27;;;0.70;99.90;;;;;;5115304;28;20042;-72
2023/12/08 07:36:48;;;;;;;1.27;1.17;;;0.60;99.90;;;;;;5115766;28;20047;-71
2023/12/08 07:39:14;;;;;;;1.02;0.93;;;0.60;99.90;;;;;;5115254;28;20089;-70
2023/12/08 07:41:40;;;;;;;1.50;1.40;;;0.60;99.90;;;;;;5115196;28;20040;-71
2023/12/08 07:44:05;;;;;;;2.33;2.15;;;0.60;99.90;;;;;;5115508;28;20036;-69
2023/12/08 07:46:31;;;;;;;1.30;1.20;;;0.70;99.90;;;;;;5115099;28;20039;-68
2023/12/08 07:48:57;;;;;;;1.15;1.05;;;0.70;99.90;;;;;;5115143;28;20071;-75
2023/12/08 07:51:23;;;;;;;1.60;1.50;;;0.70;99.90;;;;;;5115599;28;20044;-72
2023/12/08 07:53:49;;;;;;;1.20;1.10;;;0.70;99.90;;;;;;5115073;28;20036;-71
2023/12/08 07:56:14;;;;;;;1.30;1.20;;;0.70;99.90;;;;;;5115030;28;20341;-71
2023/12/08 07:58:40;;;;;;;1.40;1.30;;;0.70;99.90;;;;;;5114995;28;20032;-72
2023/12/08 08:01:06;;;;;;;1.30;1.20;;;0.70;99.90;;;;;;5114791;28;20032;-72
2023/12/08 08:03:31;;;;;;;1.65;1.55;;;0.70;99.90;;;;;;5114825;28;20435;-69
2023/12/08 08:05:57;;;;;;;2.85;2.65;;;0.70;99.90;;;;;;5115128;28;20140;-71
2023/12/08 08:08:23;;;;;;;1.65;1.55;;;0.70;99.90;;;;;;5114843;28;20467;-72
2023/12/08 08:10:48;;;;;;;1.55;1.45;;;0.70;99.90;;;;;;5109883;28;20349;-71
2023/12/08 08:13:14;;;;;;;7.78;3.90;;;0.70;99.90;;;;;;5104689;28;20043;-74
2023/12/08 08:15:40;;;;;;;1.38;1.27;;;0.70;99.90;;;;;;5094715;28;20499;-71
2023/12/08 08:18:06;;;;;;;2.22;2.05;;;0.70;99.90;;;;;;5104681;28;20070;-70
2023/12/08 08:20:32;;;;;;;1.40;1.30;;;0.70;99.90;;;;;;5093998;28;20383;-73
2023/12/08 08:22:57;;;;;;;1.13;1.02;;;0.70;99.90;;;;;;5095274;28;20044;-69
2023/12/08 08:25:24;;;;;;;2.13;2.00;;;0.70;99.90;;;;;;5114522;28;20486;-71
2023/12/08 08:27:53;;;;;;;;;;;0.80;99.90;;;;;;5108491;28;20075;-73
2023/12/08 08:30:19;;;;;;;1.10;1.00;;;0.80;99.90;;;;;;5098333;28;20341;-76
2023/12/08 08:32:45;;;;;;;1.10;1.00;;;0.80;99.90;;;;;;5094113;28;20040;-74
2023/12/08 08:35:10;;;;;;;1.60;1.50;;;0.80;99.90;;;;;;5094445;28;20036;-74
2023/12/08 08:37:36;;;;;;;1.13;1.02;;;0.80;99.90;;;;;;5097056;28;20044;-75
2023/12/08 08:40:05;;;;;;;1.10;1.00;;;0.80;99.90;;;;;;5103876;28;20039;-71
2023/12/08 08:42:31;;;;;;;1.50;1.40;;;0.80;99.90;;;;;;5100107;28;20148;-75
2023/12/08 08:44:56;;;;;;;1.15;1.05;;;0.90;99.90;;;;;;5093576;28;20036;-74
2023/12/08 08:47:22;;;;;;;1.30;1.20;;;0.90;99.90;;;;;;5102195;28;20075;-72
2023/12/08 08:49:48;;;;;;;1.10;1.00;;;0.90;99.90;;;;;;5094663;28;20036;-73
2023/12/08 08:52:13;;;;;;;1.10;1.00;;;0.90;99.90;;;;;;5094077;28;20095;-74
2023/12/08 08:54:39;;;;;;;1.73;1.63;;;0.90;99.90;;;;;;5093889;28;20044;-76
2023/12/08 08:57:05;;;;;;;1.10;1.00;;;0.90;99.90;;;;;;5093797;28;20127;-76
2023/12/08 08:59:30;;;;;;;3.15;2.05;;;0.90;99.90;;;;;;5093724;28;20054;-73
2023/12/08 09:01:56;;;;;;;1.25;1.15;;;0.90;99.90;;;;;;5093342;28;20460;-71
2023/12/08 09:04:22;;;;;;;3.20;2.67;;;0.90;99.90;;;;;;5092192;28;20579;-73
2023/12/08 09:06:47;;;;;;;1.20;1.10;;;0.90;99.90;;;;;;5091688;28;20076;-71
2023/12/08 09:09:13;;;;;;;1.17;1.08;;;0.90;99.90;;;;;;5091814;28;20040;-72
2023/12/08 09:11:39;;;;;;;1.77;1.67;;;1.00;99.90;;;;;;5091731;28;20032;-71
2023/12/08 09:14:04;;;;;;;1.33;1.23;;;1.00;99.90;;;;;;5091392;28;20717;-71
2023/12/08 09:16:30;;;;;;;1.08;0.98;;;1.00;99.90;;;;;;5091370;28;20040;-70
2023/12/08 09:18:55;;;;;;;2.97;2.78;;;1.00;99.90;;;;;;5091809;28;20372;-73
2023/12/08 09:21:21;;;;;;;1.40;1.30;;;1.00;99.90;;;;;;5093674;28;20087;-71
2023/12/08 09:23:47;;;;;;;1.35;1.25;;;1.00;99.90;;;;;;5093639;28;20159;-70
2023/12/08 09:26:12;;;;;;;1.65;1.55;;;1.00;99.90;;;;;;5093546;28;20044;-73
2023/12/08 09:28:38;;;;;;;1.40;1.30;;;1.00;99.90;;;;;;5093806;28;20059;-71
2023/12/08 09:31:04;;;;;;;1.33;1.23;;;1.00;99.90;;;;;;5093489;28;20036;-74
2023/12/08 09:33:29;;;;;;;1.65;1.23;;;1.00;99.90;;;;;;5093432;28;20066;-72
2023/12/08 09:35:55;;;;;;;1.30;1.20;;;1.00;99.90;;;;;;5093882;28;20036;-70
2023/12/08 09:38:21;;;;;;;1.27;1.17;;;1.00;99.90;;;;;;5093403;28;20032;-70
2023/12/08 09:40:46;;;;;;;1.10;1.00;;;1.00;99.90;;;;;;5093027;28;20044;-71
2023/12/08 09:43:25;;;;;;;1.25;1.15;;;1.00;99.90;;;;;;5093401;28;20119;-70
2023/12/08 09:45:53;;;;;;;1.10;1.00;;;1.00;99.90;;;;;;5093031;28;20043;-73
2023/12/08 09:48:21;;;;;;;3.10;1.73;;;1.00;99.90;;;;;;5093295;28;20079;-70
2023/12/08 09:50:50;;;;;;;1.10;1.00;;;1.10;99.90;;;;;;5094082;28;20036;-72
2023/12/08 09:53:16;;;;;;;1.50;1.40;;;1.10;99.90;;;;;;5097361;28;20040;-73
2023/12/08 09:55:43;;;;;;;1.10;1.00;;;1.10;99.90;;;;;;5097034;28;20380;-72
2023/12/08 09:58:10;;;;;;;2.22;2.08;;;1.10;99.90;;;;;;5097094;28;20044;-71
2023/12/08 10:00:35;;;;;;;;;;;1.10;99.90;;;;;;5097290;28;20039;-70
2023/12/08 10:03:01;;;;;;;1.23;1.13;;;1.10;99.90;;;;;;5096858;28;19920;-72
2023/12/08 10:05:27;;;;;;;1.20;1.10;;;1.10;99.90;;;;;;5097082;28;20051;-73
2023/12/08 10:07:54;;;;;;;1.10;1.00;;;1.10;99.90;;;;;;5096789;28;20127;-72
2023/12/08 10:10:21;;;;;;;1.52;1.42;;;1.20;99.90;;;;;;5096762;28;20047;-71
2023/12/08 10:12:47;;;;;;;2.15;2.05;;;1.20;99.90;;;;;;5096791;28;20043;-72
2023/12/08 10:15:16;;;;;;;1.77;1.67;;;1.20;99.90;;;;;;5096854;28;20121;-71
2023/12/08 10:17:47;;;;;;;1.10;1.00;;;1.20;99.90;;;;;;5096595;28;20039;-71
2023/12/08 10:20:13;;;;;;;1.15;1.05;;;1.20;99.90;;;;;;5096200;28;20086;-72
2023/12/08 10:22:53;;;;;;;1.10;1.00;;;1.20;99.90;;;;;;5096830;28;20195;-70
2023/12/08 10:25:21;;;;;;;1.00;1.00;;;1.20;99.90;;;;;;5096356;28;20094;-70
2023/12/08 10:27:49;;;;;;;1.00;1.00;;;1.20;99.90;;;;;;5096307;28;20426;-70
2023/12/08 10:30:16;;;;;;;1.10;1.00;;;1.20;99.90;;;;;;5096362;28;20036;-69
2023/12/08 10:32:42;;;;;;;1.30;1.20;;;1.20;99.90;;;;;;5096313;28;20052;-71
2023/12/08 10:35:11;;;;;;;1.65;1.55;;;1.30;99.90;;;;;;5096290;28;20061;-71
2023/12/08 10:37:38;;;;;;;2.58;2.22;;;1.30;99.90;;;;;;5096303;28;20061;-69
2023/12/08 10:40:09;;;;;;;1.52;1.42;;;1.30;99.90;;;;;;5096140;28;20036;-71
2023/12/08 10:42:35;;;;;;;2.25;2.05;;;1.30;99.90;;;;;;5096166;28;20093;-72
2023/12/08 10:45:00;;;;;;;1.25;1.15;;;1.30;99.90;;;;;;5096145;28;20040;-70
2023/12/08 10:47:27;;;;;;;2.25;1.75;;;1.30;99.90;;;;;;5096061;28;20050;-70
2023/12/08 10:49:54;;;;;;;1.30;1.20;;;1.30;99.90;;;;;;5096043;28;20040;-72
2023/12/08 10:52:22;;;;;;;1.30;1.20;;;1.30;99.90;;;;;;5095914;28;20120;-70
2023/12/08 10:54:48;;;;;;;1.10;1.00;;;1.30;99.90;;;;;;5095965;28;20051;-70
2023/12/08 10:57:15;;;;;;;3.45;2.28;;;1.30;99.90;;;;;;5095895;28;20089;-72
2023/12/08 10:59:43;;;;;;;1.42;1.33;;;1.30;99.90;;;;;;5095664;28;20479;-69
2023/12/08 11:02:20;;;;;;;1.55;1.45;;;1.40;99.90;;;;;;5094959;28;20125;-69
2023/12/08 11:04:53;;;;;;;1.33;1.27;;;1.30;99.90;;;;;;5095859;28;20044;-73
2023/12/08 11:07:25;;;;;;;1.23;1.13;;;1.30;99.90;;;;;;5096129;28;20047;-72
2023/12/08 11:09:53;;;;;;;1.10;1.00;;;1.30;99.90;;;;;;5095645;28;20119;-71
2023/12/08 11:12:24;;;;;;;1.13;1.02;;;1.50;99.90;;;;;;5096672;28;20062;-69
2023/12/08 11:14:59;;;;;;;1.10;1.00;;;1.40;99.90;;;;;;5095843;28;20170;-73
2023/12/08 11:17:41;;;;;;;1.10;1.00;;;1.40;99.90;;;;;;5095372;28;20036;-73
2023/12/08 11:20:08;;;;;;;1.30;1.20;;;1.40;99.90;;;;;;5094883;28;20111;-73
2023/12/08 11:22:34;;;;;;;1.25;1.15;;;1.40;99.90;;;;;;5095904;28;20050;-70
2023/12/08 11:25:07;;;;;;;1.10;1.00;;;1.40;99.90;;;;;;5095508;28;20075;-72
2023/12/08 11:27:37;;;;;;;1.95;1.75;;;1.40;99.90;;;;;;5095666;28;20091;-72
2023/12/08 11:30:18;;;;;;;1.52;1.42;;;1.40;99.90;;;;;;5095369;28;20032;-71
2023/12/08 11:33:05;;;;;;;1.33;1.23;;;1.40;99.90;;;;;;5095132;28;20040;-72
2023/12/08 11:35:30;;;;;;;1.75;1.65;;;1.40;99.90;;;;;;5095136;28;20050;-71
2023/12/08 11:37:56;;;;;;;1.55;1.45;;;1.40;99.90;;;;;;5095071;28;20036;-70
2023/12/08 11:40:22;;;;;;;0.90;0.90;;;1.40;99.90;;;;;;5095007;28;20032;-71
2023/12/08 11:42:50;;;;;;;0.97;0.97;;;1.40;99.90;;;;;;5094646;28;20444;-72
2023/12/08 11:45:17;;;;;;;1.20;1.10;;;1.50;99.90;;;;;;5100150;28;20040;-72
2023/12/08 11:47:43;;;;;;;1.20;1.10;;;1.50;99.90;;;;;;5094852;28;20164;-73
2023/12/08 11:50:10;;;;;;;3.42;2.63;;;1.50;99.90;;;;;;5094872;28;20057;-74
2023/12/08 11:52:37;;;;;;;0.90;0.90;;;1.50;99.90;;;;;;5094687;28;20040;-70
2023/12/08 11:55:12;;;;;;;1.30;1.20;;;1.50;99.90;;;;;;5094472;28;20468;-72
2023/12/08 11:58:05;;;;;;;1.48;1.38;;;1.50;99.90;;;;;;5093562;28;20039;-72
2023/12/08 12:00:33;;;;;;;1.20;1.10;;;1.60;99.90;;;;;;5094893;28;20052;-71
2023/12/08 12:02:59;;;;;;;1.75;1.65;;;1.60;99.90;;;;;;5094572;28;20051;-71
2023/12/08 12:05:28;;;;;;;1.80;1.70;;;1.60;99.90;;;;;;5094686;28;20042;-73
2023/12/08 12:07:55;;;;;;;1.48;1.38;;;1.60;99.90;;;;;;5094459;28;20035;-70
2023/12/08 12:10:28;;;;;;;1.73;1.63;;;1.70;99.90;;;;;;5093455;28;20055;-70
2023/12/08 12:12:57;;;;;;;1.00;1.00;;;1.60;99.90;;;;;;5095063;28;20414;-70
2023/12/08 12:15:25;;;;;;;1.92;1.83;;;1.70;99.90;;;;;;5093982;28;20119;-70
2023/12/08 12:17:53;;;;;;;1.42;1.33;;;1.70;99.90;;;;;;5094238;28;20048;-71
2023/12/08 12:20:19;;;;;;;1.90;1.80;;;2.70;99.90;;;;;;5093975;28;20169;-73
2023/12/08 12:22:45;;;;;;;1.10;1.00;;;1.70;99.90;;;;;;5094283;28;20085;-73
2023/12/08 12:25:11;;;;;;;1.20;1.10;;;1.70;99.90;;;;;;5094280;28;20047;-69
2023/12/08 12:27:46;;;;;;;1.75;1.65;;;1.80;99.90;;;;;;5094671;28;20044;-69
2023/12/08 12:30:12;;;;;;;0.90;0.90;;;1.70;99.90;;;;;;5094146;28;20032;-74
2023/12/08 12:32:38;;;;;;;1.00;1.00;;;1.80;99.90;;;;;;5094139;28;20481;-72
2023/12/08 12:35:05;;;;;;;2.15;1.80;;;1.80;99.90;;;;;;5094158;28;20048;-80
2023/12/08 12:37:31;;;;;;;1.15;1.05;;;1.80;99.90;;;;;;5092817;28;20479;-72
2023/12/08 12:39:57;;;;;;;1.65;1.55;;;1.80;99.90;;;;;;5093928;28;20127;-72
2023/12/08 12:42:23;;;;;;;1.20;1.10;;;1.80;99.90;;;;;;5093976;28;20063;-73
2023/12/08 12:44:49;;;;;;;1.45;1.35;;;1.80;99.90;;;;;;5094060;28;20490;-71
2023/12/08 12:47:20;;;;;;;1.75;1.65;;;1.80;99.90;;;;;;5093940;28;20051;-71
2023/12/08 12:50:07;;;;;;;1.10;1.00;;;1.80;99.90;;;;;;5092628;28;20414;-74
2023/12/08 12:52:36;;;;;;;3.00;2.55;;;1.80;99.90;;;;;;5094335;28;20074;-71
2023/12/08 12:55:19;;;;;;;1.10;1.00;;;1.80;99.90;;;;;;5093806;28;20426;-70